createdAt,value
2024-03-12T00:01:47.089Z,71.32
2024-03-12T00:04:14.594Z,71.46
2024-03-12T00:06:43.735Z,71.17
2024-03-12T00:09:11.193Z,71.24
2024-03-12T00:11:38.433Z,71.28
2024-03-12T00:14:05.500Z,71.34
2024-03-12T00:16:35.208Z,71.05
2024-03-12T00:19:03.834Z,71.25
2024-03-12T00:21:31.801Z,71.34
2024-03-12T00:24:00.376Z,71.35
2024-03-12T00:26:30.260Z,71.45
2024-03-12T00:28:58.122Z,71.32
2024-03-12T00:31:28.752Z,70.96
2024-03-12T00:34:01.785Z,71.17
2024-03-12T00:36:30.306Z,71.24
2024-03-12T00:38:59.810Z,71.25
2024-03-12T00:41:26.641Z,71.63
2024-03-12T00:43:55.473Z,71.56
2024-03-12T00:46:24.923Z,71.58
2024-03-12T00:48:52.025Z,71.63
2024-03-12T00:51:19.659Z,71.88
2024-03-12T00:53:46.927Z,71.58
2024-03-12T00:56:16.614Z,71.59
2024-03-12T00:58:43.911Z,71.63
2024-03-12T01:01:16.398Z,71.62
2024-03-12T01:03:48.262Z,71.87
2024-03-12T01:06:15.475Z,71.62
2024-03-12T01:08:44.108Z,71.88
2024-03-12T01:11:11.199Z,72.08
2024-03-12T01:13:38.184Z,71.79
2024-03-12T01:16:05.916Z,71.88
2024-03-12T01:18:35.789Z,71.68
2024-03-12T01:21:25.703Z,71.78
2024-03-12T01:23:52.690Z,71.82
2024-03-12T01:26:24.118Z,71.79
2024-03-12T01:28:52.801Z,71.66
2024-03-12T01:31:25.696Z,71.28
2024-03-12T01:33:52.855Z,71.52
2024-03-12T01:36:42.093Z,71.69
2024-03-12T01:39:10.133Z,71.67
2024-03-12T01:41:43.205Z,71.42
2024-03-12T01:44:10.264Z,70.81
2024-03-12T01:46:38.415Z,71.07
2024-03-12T01:49:10.580Z,71.18
2024-03-12T01:51:40.437Z,71.50
2024-03-12T01:54:07.395Z,71.64
2024-03-12T01:56:34.475Z,71.68
2024-03-12T01:59:02.395Z,71.77
2024-03-12T02:01:29.581Z,71.62
2024-03-12T02:03:57.820Z,71.28
2024-03-12T02:06:25.009Z,71.85
2024-03-12T02:08:53.186Z,71.86
2024-03-12T02:11:21.089Z,71.38
2024-03-12T02:13:50.560Z,71.45
2024-03-12T02:16:17.760Z,71.40
2024-03-12T02:18:44.734Z,71.42
2024-03-12T02:21:11.673Z,71.40
2024-03-12T02:23:43.198Z,71.52
2024-03-12T02:26:11.257Z,71.16
2024-03-12T02:28:38.384Z,71.19
2024-03-12T02:31:08.702Z,70.83
2024-03-12T02:33:36.893Z,71.13
2024-03-12T02:36:04.320Z,70.98
2024-03-12T02:38:36.144Z,70.68
2024-03-12T02:41:03.202Z,70.62
2024-03-12T02:43:30.307Z,70.61
2024-03-12T02:45:57.443Z,70.30
2024-03-12T02:48:26.711Z,70.47
2024-03-12T02:50:53.855Z,70.03
2024-03-12T02:53:20.696Z,70.15
2024-03-12T02:55:48.017Z,70.19
2024-03-12T02:58:16.625Z,69.76
2024-03-12T03:00:55.497Z,69.89
2024-03-12T03:03:23.346Z,70.13
2024-03-12T03:05:54.132Z,70.28
2024-03-12T03:08:24.617Z,70.32
2024-03-12T03:10:51.885Z,70.30
2024-03-12T03:13:26.731Z,70.33
2024-03-12T03:15:53.792Z,70.32
2024-03-12T03:18:20.800Z,70.29
2024-03-12T03:20:47.797Z,70.47
2024-03-12T03:23:14.895Z,70.39
2024-03-12T03:25:41.917Z,70.07
2024-03-12T03:28:09.977Z,69.82
2024-03-12T03:30:39.608Z,70.04
2024-03-12T03:33:16.204Z,70.04
2024-03-12T03:35:45.580Z,69.96
2024-03-12T03:38:12.590Z,69.93
2024-03-12T03:40:39.853Z,70.09
2024-03-12T03:43:07.004Z,69.84
2024-03-12T03:45:34.114Z,70.10
2024-03-12T03:48:03.736Z,69.80
2024-03-12T03:50:36.528Z,70.00
2024-03-12T03:53:03.502Z,69.99
2024-03-12T03:55:35.370Z,70.36
2024-03-12T03:58:05.818Z,70.08
2024-03-12T04:00:36.975Z,70.13
2024-03-12T04:03:07.637Z,70.12
2024-03-12T04:05:34.812Z,70.44
2024-03-12T04:08:12.043Z,70.40
2024-03-12T04:10:38.996Z,70.46
2024-03-12T04:13:06.180Z,70.31
2024-03-12T04:15:35.832Z,70.66
2024-03-12T04:18:03.705Z,70.47
2024-03-12T04:20:30.911Z,70.37
2024-03-12T04:22:57.871Z,70.89
2024-03-12T04:25:27.700Z,70.65
2024-03-12T04:27:56.993Z,70.96
2024-03-12T04:30:24.120Z,71.12
2024-03-12T04:32:51.738Z,71.10
2024-03-12T04:35:22.001Z,71.35
2024-03-12T04:37:52.188Z,71.29
2024-03-12T04:40:23.823Z,71.23
2024-03-12T04:42:53.387Z,71.32
2024-03-12T04:45:23.885Z,71.33
2024-03-12T04:47:52.566Z,71.57
2024-03-12T04:50:22.967Z,71.66
2024-03-12T04:52:53.580Z,71.93
2024-03-12T04:55:20.786Z,72.13
2024-03-12T04:57:50.798Z,72.06
2024-03-12T05:00:22.858Z,71.94
2024-03-12T05:02:55.479Z,72.14
2024-03-12T05:05:22.982Z,72.22
2024-03-12T05:07:51.216Z,72.13
2024-03-12T05:10:34.836Z,71.88
2024-03-12T05:13:02.075Z,71.83
2024-03-12T05:15:29.330Z,71.93
2024-03-12T05:17:56.606Z,72.19
2024-03-12T05:20:25.075Z,72.31
2024-03-12T05:22:52.524Z,72.36
2024-03-12T05:26:02.725Z,72.48
2024-03-12T05:28:41.688Z,72.41
2024-03-12T05:31:09.394Z,72.41
2024-03-12T05:33:40.834Z,72.25
2024-03-12T05:36:13.993Z,71.92
2024-03-12T05:39:01.341Z,71.66
2024-03-12T05:41:30.834Z,71.50
2024-03-12T05:44:39.945Z,71.51
2024-03-12T05:47:46.289Z,71.38
2024-03-12T05:50:18.186Z,71.47
2024-03-12T05:52:50.305Z,70.89
2024-03-12T05:55:21.012Z,70.87
2024-03-12T05:57:50.967Z,71.14
2024-03-12T06:00:21.344Z,71.12
2024-03-12T06:02:48.476Z,71.21
2024-03-12T06:05:19.020Z,70.97
2024-03-12T06:07:46.139Z,70.93
2024-03-12T06:10:13.457Z,70.98
2024-03-12T06:12:46.833Z,71.06
2024-03-12T06:15:21.113Z,71.10
2024-03-12T06:17:48.186Z,70.44
2024-03-12T06:20:15.593Z,70.85
2024-03-12T06:22:44.922Z,70.84
2024-03-12T06:25:15.082Z,70.88
2024-03-12T06:27:44.662Z,71.19
2024-03-12T06:30:12.459Z,71.27
2024-03-12T06:32:39.423Z,71.05
2024-03-12T06:35:10.207Z,70.72
2024-03-12T06:37:37.227Z,70.69
2024-03-12T06:40:06.148Z,70.68
2024-03-12T06:42:33.366Z,70.41
2024-03-12T06:45:02.010Z,70.47
2024-03-12T06:47:30.428Z,70.21
2024-03-12T06:49:59.985Z,70.18
2024-03-12T06:52:28.027Z,70.37
2024-03-12T06:54:55.406Z,70.63
2024-03-12T06:57:23.801Z,70.65
2024-03-12T06:59:51.197Z,70.81
2024-03-12T07:02:19.250Z,70.72
2024-03-12T07:04:48.695Z,70.82
2024-03-12T07:07:22.995Z,70.75
2024-03-12T07:09:52.558Z,71.00
2024-03-12T07:12:20.309Z,71.05
2024-03-12T07:14:56.426Z,70.91
2024-03-12T07:17:24.338Z,71.23
2024-03-12T07:19:52.437Z,71.51
2024-03-12T07:22:19.594Z,71.52
2024-03-12T07:24:47.116Z,71.39
2024-03-12T07:27:14.933Z,71.29
2024-03-12T07:29:45.021Z,71.23
2024-03-12T07:32:14.609Z,71.12
2024-03-12T07:34:43.995Z,70.80
2024-03-12T07:37:12.029Z,71.11
2024-03-12T07:39:39.904Z,70.92
2024-03-12T07:42:14.717Z,70.71
2024-03-12T07:44:42.747Z,70.89
2024-03-12T07:47:11.714Z,70.91
2024-03-12T07:49:39.080Z,70.69
2024-03-12T07:52:07.246Z,70.84
2024-03-12T07:54:34.982Z,70.87
2024-03-12T07:57:02.394Z,70.82
2024-03-12T07:59:31.614Z,70.86
2024-03-12T08:01:59.376Z,70.90
2024-03-12T08:04:27.507Z,70.86
2024-03-12T08:06:55.354Z,70.46
2024-03-12T08:09:22.614Z,70.68
2024-03-12T08:11:53.627Z,70.86
2024-03-12T08:14:20.865Z,70.39
2024-03-12T08:16:48.018Z,70.43
2024-03-12T08:19:15.045Z,70.28
2024-03-12T08:21:42.777Z,70.40
2024-03-12T08:24:12.349Z,70.78
2024-03-12T08:26:39.379Z,70.65
2024-03-12T08:29:06.258Z,70.60
2024-03-12T08:31:38.764Z,70.68
2024-03-12T08:34:17.158Z,70.44
2024-03-12T08:36:44.647Z,70.19
2024-03-12T08:39:14.609Z,69.99
2024-03-12T08:41:42.215Z,70.26
2024-03-12T08:44:12.004Z,70.09
2024-03-12T08:46:44.346Z,70.25
2024-03-12T08:49:12.663Z,70.22
2024-03-12T08:51:41.121Z,70.16
2024-03-12T08:54:10.519Z,70.48
2024-03-12T08:56:37.720Z,70.59
2024-03-12T08:59:10.496Z,70.74
2024-03-12T09:01:37.877Z,70.67
2024-03-12T09:04:09.140Z,70.89
2024-03-12T09:06:36.731Z,71.11
2024-03-12T09:09:04.195Z,71.33
2024-03-12T09:11:31.132Z,71.30
2024-03-12T09:13:58.158Z,71.49
2024-03-12T09:16:25.132Z,71.61
2024-03-12T09:18:55.147Z,71.80
2024-03-12T09:21:22.954Z,71.91
2024-03-12T09:23:56.977Z,72.09
2024-03-12T09:26:33.431Z,71.91
2024-03-12T09:29:01.283Z,72.06
2024-03-12T09:31:28.983Z,71.98
2024-03-12T09:33:56.840Z,71.87
2024-03-12T09:36:25.867Z,71.84
2024-03-12T09:38:53.284Z,71.94
2024-03-12T09:41:25.381Z,71.94
2024-03-12T09:43:54.644Z,71.94
2024-03-12T09:46:23.001Z,71.83
2024-03-12T09:48:51.533Z,71.97
2024-03-12T09:51:18.581Z,71.85
2024-03-12T09:53:49.283Z,71.85
2024-03-12T09:56:19.350Z,71.95
2024-03-12T09:58:49.379Z,71.76
2024-03-12T10:01:17.251Z,71.61
2024-03-12T10:03:48.399Z,71.52
2024-03-12T10:06:18.040Z,71.37
2024-03-12T10:08:45.799Z,71.47
2024-03-12T10:11:22.194Z,71.43
2024-03-12T10:13:59.205Z,71.39
2024-03-12T10:16:26.291Z,71.29
2024-03-12T10:19:10.750Z,71.26
2024-03-12T10:21:38.848Z,71.22
2024-03-12T10:24:19.060Z,71.19
2024-03-12T10:26:46.858Z,71.15
2024-03-12T10:29:14.965Z,70.99
2024-03-12T10:31:45.266Z,70.81
2024-03-12T10:34:16.975Z,70.91
2024-03-12T10:36:44.684Z,71.01
2024-03-12T10:39:27.286Z,70.99
2024-03-12T10:42:00.665Z,70.88
2024-03-12T10:44:30.019Z,70.70
2024-03-12T10:47:00.317Z,70.41
2024-03-12T10:49:29.733Z,70.33
2024-03-12T10:51:58.487Z,70.27
2024-03-12T10:54:32.075Z,69.97
2024-03-12T10:57:04.586Z,70.39
2024-03-12T10:59:33.181Z,70.28
2024-03-12T11:02:00.604Z,69.88
2024-03-12T11:04:32.884Z,69.96
2024-03-12T11:07:02.312Z,69.85
2024-03-12T11:09:30.561Z,69.26
2024-03-12T11:11:58.214Z,69.17
2024-03-12T11:14:25.545Z,68.85
2024-03-12T11:16:55.942Z,68.52
2024-03-12T11:19:26.331Z,68.72
2024-03-12T11:21:53.985Z,67.91
2024-03-12T11:24:27.894Z,68.08
2024-03-12T11:26:56.035Z,68.16
2024-03-12T11:30:15.853Z,67.62
2024-03-12T11:32:50.028Z,67.52
2024-03-12T11:35:19.800Z,67.32
2024-03-12T11:38:10.354Z,67.71
2024-03-12T11:40:48.290Z,66.72
2024-03-12T11:43:39.380Z,66.06
2024-03-12T11:46:16.849Z,65.70
2024-03-12T11:48:46.775Z,65.47
2024-03-12T11:51:15.238Z,65.19
2024-03-12T11:53:49.169Z,64.89
2024-03-12T11:56:20.306Z,64.58
2024-03-12T11:59:00.337Z,64.03
2024-03-12T12:01:34.632Z,63.18
2024-03-12T12:04:10.965Z,62.61
2024-03-12T12:06:37.999Z,62.26
2024-03-12T12:09:07.419Z,61.93
2024-03-12T12:11:36.376Z,62.23
2024-03-12T12:14:07.082Z,61.45
2024-03-12T12:16:33.976Z,61.26
2024-03-12T12:19:09.177Z,61.16
2024-03-12T12:21:37.438Z,62.61
2024-03-12T12:24:06.015Z,61.87
2024-03-12T12:26:37.760Z,61.18
2024-03-12T12:29:05.691Z,60.55
2024-03-12T12:31:37.951Z,59.84
2024-03-12T12:34:12.032Z,59.51
2024-03-12T12:36:41.819Z,58.62
2024-03-12T12:39:11.996Z,58.11
2024-03-12T12:41:44.700Z,57.15
2024-03-12T12:44:22.962Z,56.40
2024-03-12T12:46:53.703Z,56.05
2024-03-12T12:49:22.836Z,55.04
2024-03-12T12:51:51.576Z,54.75
2024-03-12T12:54:22.958Z,53.27
2024-03-12T12:56:51.130Z,52.47
2024-03-12T12:59:21.857Z,52.20
2024-03-12T13:01:51.951Z,52.28
2024-03-12T13:04:28.805Z,51.75
2024-03-12T13:06:58.223Z,51.11
2024-03-12T13:09:37.664Z,50.24
2024-03-12T13:12:09.677Z,48.46
2024-03-12T13:14:41.038Z,47.55
2024-03-12T13:17:10.467Z,46.20
2024-03-12T13:19:37.812Z,44.94
2024-03-12T13:22:13.428Z,43.62
2024-03-12T13:24:45.448Z,43.39
2024-03-12T13:27:13.701Z,43.07
2024-03-12T13:29:43.891Z,42.72
2024-03-12T13:32:11.626Z,42.05
2024-03-12T13:34:38.866Z,41.61
2024-03-12T13:37:07.962Z,40.53
2024-03-12T13:39:35.488Z,40.44
2024-03-12T13:42:06.763Z,40.03
2024-03-12T13:44:33.720Z,39.96
2024-03-12T13:47:01.531Z,41.05
2024-03-12T13:49:29.120Z,40.70
2024-03-12T13:51:56.663Z,39.30
2024-03-12T13:54:23.588Z,38.72
2024-03-12T13:56:50.490Z,38.75
2024-03-12T13:59:18.981Z,38.70
2024-03-12T14:01:48.593Z,39.41
2024-03-12T14:04:15.996Z,39.22
2024-03-12T14:06:43.222Z,38.86
2024-03-12T14:09:13.553Z,38.14
2024-03-12T14:11:41.071Z,38.09
2024-03-12T14:14:11.258Z,37.73
2024-03-12T14:16:38.252Z,37.70
2024-03-12T14:19:05.292Z,37.35
2024-03-12T14:21:34.287Z,36.46
2024-03-12T14:24:03.073Z,36.61
2024-03-12T14:26:30.533Z,36.05
2024-03-12T14:28:57.376Z,36.00
2024-03-12T14:31:24.256Z,36.13
2024-03-12T14:33:51.297Z,36.12
2024-03-12T14:36:18.438Z,36.24
2024-03-12T14:38:45.930Z,35.63
2024-03-12T14:41:12.991Z,35.27
2024-03-12T14:43:39.970Z,34.43
2024-03-12T14:46:08.009Z,33.83
2024-03-12T14:48:35.574Z,32.93
2024-03-12T14:51:02.745Z,32.87
2024-03-12T14:53:29.882Z,32.92
2024-03-12T14:55:57.724Z,32.94
2024-03-12T14:58:24.773Z,32.58
2024-03-12T15:00:51.915Z,32.04
2024-03-12T15:03:20.572Z,32.66
2024-03-12T15:05:55.578Z,31.84
2024-03-12T15:08:24.378Z,31.75
2024-03-12T15:10:51.518Z,31.56
2024-03-12T15:13:19.388Z,31.51
2024-03-12T15:15:47.453Z,32.52
2024-03-12T15:18:14.794Z,32.84
2024-03-12T15:20:43.370Z,33.02
2024-03-12T15:23:10.759Z,33.61
2024-03-12T15:25:37.856Z,34.28
2024-03-12T15:28:05.567Z,34.43
2024-03-12T15:30:34.949Z,35.52
2024-03-12T15:33:02.220Z,35.85
2024-03-12T15:35:29.364Z,35.34
2024-03-12T15:38:00.005Z,34.20
2024-03-12T15:40:27.467Z,34.68
2024-03-12T15:42:54.724Z,34.64
2024-03-12T15:45:22.121Z,36.09
2024-03-12T15:47:49.452Z,36.10
2024-03-12T15:50:19.224Z,36.75
2024-03-12T15:52:47.525Z,37.15
2024-03-12T15:55:15.919Z,37.28
2024-03-12T15:57:46.226Z,38.08
2024-03-12T16:00:15.294Z,38.29
2024-03-12T16:02:42.678Z,38.28
2024-03-12T16:05:09.867Z,39.25
2024-03-12T16:07:37.337Z,38.90
2024-03-12T16:10:06.127Z,39.76
2024-03-12T16:12:33.223Z,40.50
2024-03-12T16:15:03.291Z,40.79
2024-03-12T16:17:33.357Z,40.98
2024-03-12T16:20:01.161Z,40.94
2024-03-12T16:22:27.976Z,41.43
2024-03-12T16:24:54.967Z,42.47
2024-03-12T16:27:21.828Z,41.85
2024-03-12T16:29:48.744Z,42.60
2024-03-12T16:32:15.911Z,41.78
2024-03-12T16:34:43.428Z,42.29
2024-03-12T16:37:11.404Z,46.24
2024-03-12T16:39:40.221Z,45.73
2024-03-12T16:42:07.366Z,46.16
2024-03-12T16:44:34.217Z,46.08
2024-03-12T16:47:06.376Z,45.09
2024-03-12T16:49:34.301Z,45.16
2024-03-12T16:52:02.532Z,44.71
2024-03-12T16:54:32.820Z,44.69
2024-03-12T16:57:03.691Z,44.93
2024-03-12T16:59:33.508Z,45.07
2024-03-12T17:02:02.148Z,44.92
2024-03-12T17:04:29.768Z,44.98
2024-03-12T17:06:59.545Z,46.00
2024-03-12T17:09:30.662Z,45.80
2024-03-12T17:11:58.898Z,47.14
2024-03-12T17:14:31.011Z,47.74
2024-03-12T17:17:07.346Z,48.30
2024-03-12T17:19:38.435Z,46.39
2024-03-12T17:22:11.882Z,47.48
2024-03-12T17:24:40.641Z,47.54
2024-03-12T17:27:09.444Z,47.74
2024-03-12T17:29:38.288Z,47.69
2024-03-12T17:32:06.725Z,47.96
2024-03-12T17:34:34.430Z,48.58
2024-03-12T17:37:05.278Z,49.02
2024-03-12T17:39:32.885Z,49.16
2024-03-12T17:42:01.889Z,49.31
2024-03-12T17:44:29.264Z,49.06
2024-03-12T17:46:57.161Z,50.01
2024-03-12T17:49:40.119Z,49.11
2024-03-12T17:52:12.126Z,49.34
2024-03-12T17:54:40.295Z,49.61
2024-03-12T17:57:11.915Z,49.25
2024-03-12T17:59:40.911Z,49.63
2024-03-12T18:02:15.098Z,49.78
2024-03-12T18:04:43.004Z,49.92
2024-03-12T18:07:24.630Z,50.52
2024-03-12T18:09:53.761Z,50.94
2024-03-12T18:12:22.796Z,50.69
2024-03-12T18:14:52.501Z,51.12
2024-03-12T18:17:22.113Z,51.58
2024-03-12T18:19:50.794Z,51.65
2024-03-12T18:22:17.877Z,51.73
2024-03-12T18:24:48.001Z,51.92
2024-03-12T18:27:15.122Z,51.82
2024-03-12T18:29:45.099Z,51.74
2024-03-12T18:32:15.768Z,52.05
2024-03-12T18:34:42.820Z,52.42
2024-03-12T18:37:11.304Z,52.23
2024-03-12T18:39:38.406Z,52.61
2024-03-12T18:42:07.338Z,53.12
2024-03-12T18:44:34.375Z,53.40
2024-03-12T18:47:03.197Z,53.25
2024-03-12T18:49:30.489Z,53.01
2024-03-12T18:52:01.584Z,53.47
2024-03-12T18:54:30.573Z,54.69
2024-03-12T18:56:57.586Z,54.82
2024-03-12T18:59:25.056Z,54.78
2024-03-12T19:01:55.304Z,54.60
2024-03-12T19:04:28.389Z,54.65
2024-03-12T19:06:55.771Z,54.59
2024-03-12T19:09:24.476Z,54.56
2024-03-12T19:11:51.732Z,54.79
2024-03-12T19:14:19.152Z,54.72
2024-03-12T19:16:51.049Z,54.72
2024-03-12T19:19:24.894Z,55.03
2024-03-12T19:21:52.356Z,55.51
2024-03-12T19:24:20.311Z,55.75
2024-03-12T19:26:47.362Z,55.66
2024-03-12T19:29:14.263Z,55.98
2024-03-12T19:31:42.306Z,56.00
2024-03-12T19:34:17.258Z,55.75
2024-03-12T19:36:45.991Z,55.88
2024-03-12T19:39:13.682Z,56.51
2024-03-12T19:41:46.048Z,56.92
2024-03-12T19:44:13.836Z,56.69
2024-03-12T19:46:41.580Z,56.25
2024-03-12T19:49:10.574Z,55.66
2024-03-12T19:51:38.195Z,55.89
2024-03-12T19:54:06.695Z,55.03
2024-03-12T19:56:34.047Z,54.72
2024-03-12T19:59:01.339Z,55.24
2024-03-12T20:01:29.898Z,55.73
2024-03-12T20:03:57.118Z,56.28
2024-03-12T20:06:24.402Z,56.54
2024-03-12T20:08:52.869Z,56.85
2024-03-12T20:11:20.308Z,56.90
2024-03-12T20:13:56.490Z,56.95
2024-03-12T20:16:23.640Z,57.01
2024-03-12T20:18:50.928Z,57.30
2024-03-12T20:21:18.325Z,56.96
2024-03-12T20:23:45.142Z,56.58
2024-03-12T20:26:12.114Z,57.07
2024-03-12T20:28:42.539Z,57.26
2024-03-12T20:31:11.252Z,56.54
2024-03-12T20:33:40.117Z,55.57
2024-03-12T20:36:10.849Z,55.47
2024-03-12T20:38:38.616Z,55.29
2024-03-12T20:41:05.663Z,55.74
2024-03-12T20:43:32.773Z,55.56
2024-03-12T20:45:59.969Z,55.52
2024-03-12T20:48:27.178Z,55.43
2024-03-12T20:50:54.267Z,55.83
2024-03-12T20:53:21.880Z,55.85
2024-03-12T20:55:48.872Z,54.58
2024-03-12T20:58:15.749Z,54.36
2024-03-12T21:00:45.441Z,54.74
2024-03-12T21:03:12.674Z,55.19
2024-03-12T21:05:40.859Z,55.20
2024-03-12T21:08:12.402Z,55.34
2024-03-12T21:10:44.727Z,55.39
2024-03-12T21:13:12.668Z,54.84
2024-03-12T21:15:40.687Z,54.44
2024-03-12T21:18:07.764Z,53.97
2024-03-12T21:20:35.620Z,54.48
2024-03-12T21:23:08.931Z,54.68
2024-03-12T21:25:35.776Z,54.54
2024-03-12T21:28:02.808Z,54.87
2024-03-12T21:30:29.789Z,54.60
2024-03-12T21:32:57.138Z,54.46
2024-03-12T21:35:26.805Z,54.87
2024-03-12T21:37:53.789Z,55.34
2024-03-12T21:40:21.008Z,55.48
2024-03-12T21:42:47.902Z,55.17
2024-03-12T21:45:19.460Z,55.33
2024-03-12T21:47:48.637Z,55.73
2024-03-12T21:50:16.850Z,55.59
2024-03-12T21:52:47.140Z,55.64
2024-03-12T21:55:14.746Z,55.48
2024-03-12T21:57:44.950Z,55.61
2024-03-12T22:00:20.459Z,55.41
2024-03-12T22:02:48.514Z,55.13
2024-03-12T22:05:17.391Z,55.16
2024-03-12T22:07:44.835Z,55.10
2024-03-12T22:10:14.876Z,55.11
2024-03-12T22:12:42.721Z,55.31
2024-03-12T22:15:13.186Z,55.35
2024-03-12T22:17:43.300Z,55.43
2024-03-12T22:20:11.054Z,55.48
2024-03-12T22:22:40.782Z,55.25
2024-03-12T22:25:10.557Z,54.58
2024-03-12T22:27:37.518Z,53.45
2024-03-12T22:30:07.853Z,53.88
2024-03-12T22:32:35.641Z,54.41
2024-03-12T22:35:02.530Z,53.67
2024-03-12T22:37:29.948Z,53.22
2024-03-12T22:39:58.318Z,53.28
2024-03-12T22:42:26.765Z,52.69
2024-03-12T22:44:55.101Z,52.03
2024-03-12T22:47:22.939Z,51.57
2024-03-12T22:49:50.744Z,51.13
2024-03-12T22:52:19.083Z,51.49
2024-03-12T22:54:46.138Z,51.77
2024-03-12T22:57:13.519Z,52.61
2024-03-12T22:59:42.101Z,53.05
2024-03-12T23:02:10.753Z,53.37
2024-03-12T23:04:38.256Z,53.40
2024-03-12T23:07:05.323Z,53.24
2024-03-12T23:09:33.669Z,53.44
2024-03-12T23:12:02.223Z,53.14
2024-03-12T23:14:31.078Z,52.78
2024-03-12T23:16:59.662Z,52.95
2024-03-12T23:19:27.462Z,53.53
2024-03-12T23:21:54.325Z,53.98
2024-03-12T23:24:21.288Z,53.91
2024-03-12T23:26:48.432Z,54.13
2024-03-12T23:29:21.428Z,54.33
2024-03-12T23:31:49.571Z,54.33
2024-03-12T23:34:16.683Z,53.24
2024-03-12T23:36:43.678Z,53.86
2024-03-12T23:39:11.649Z,54.55
2024-03-12T23:41:38.599Z,54.81
2024-03-12T23:44:06.290Z,55.09
2024-03-12T23:46:33.379Z,55.48
2024-03-12T23:49:01.926Z,55.55
2024-03-12T23:51:29.831Z,55.77
2024-03-12T23:53:56.804Z,56.18
2024-03-12T23:56:23.755Z,56.21
2024-03-12T23:58:50.712Z,55.88
